Terminal Aerodrome Forecast
Issued by NWS

Home | Current Version | Previous Version | Text Only | Print | Product List | Glossary On
Versions: 1 2 3 4 5 6 7 8 9 10 11 12 13 14
000
FTUS43 KEAX 271506 AAA
TAFSTJ
TAF AMD
KSTJ 271506Z 2715/2812 17010KT P6SM SCT120
     FM272100 17012KT P6SM VCTS BKN045CB
     FM280600 15005KT P6SM BKN100=

USA.gov is the U.S. government's official web portal to all federal, state and local government web resources and services.